»·PEaware :: UAL576 KSBP-KPSP

UAL576 :: KSBP-KPSP

FLIGHT INFORMATION

Flight Status: Arrived
Operator:
United Airlines
More flights by this operator :: More flights under this callsign
Pilot: Anonymous 8274 (8274)
Aircraft: BOEING 737-200
(B732)
More flights by this aircraft type
Origin: KSBP San Luis Co Regl
United States
Destination: KPSP Palm Springs Intl
United States
More flights between these airports :: More routes between these airports
Route: +MQO RZS FIM PMD V137 PSP
File this flight plan on PilotEdge
Remarks:
Altitude:
(Current/Filed)
15,000ft
Speed:
(Current/Filed)
360kts
Departed: 30-Dec-17 05:23 PM
Arrived: 30-Dec-17 06:28 PM
Distance/Time
Traveled:
221nm/1:05
Distance/Time
To Go:
Arrived

Flight Plot

Page will automatically refresh every two minutes.


Map Options




Map Legend


Flown Route
Filed Route
Departure Airport
Arrival Airport
Navaid (VOR, NDB)
Fix

Horizontal Profiles

Position Reports

Time Latitude Longitude Heading Altitude Ground
Speed
30-Dec-17 17:03 35.238870 -120.641187 1 189ft 0kts
30-Dec-17 17:04 35.238870 -120.641187 1 189ft 0kts
30-Dec-17 17:05 35.238870 -120.641187 1 189ft 0kts
30-Dec-17 17:06 35.238870 -120.641187 1 189ft 0kts
30-Dec-17 17:07 35.238870 -120.641187 1 189ft 0kts
30-Dec-17 17:08 35.238870 -120.641187 1 189ft 0kts
30-Dec-17 17:09 35.238870 -120.641187 1 189ft 0kts
30-Dec-17 17:10 35.238870 -120.641187 1 189ft 0kts
30-Dec-17 17:11 35.238870 -120.641187 1 189ft 0kts
30-Dec-17 17:12 35.238870 -120.641187 1 189ft 0kts
30-Dec-17 17:13 35.238870 -120.641187 1 189ft 0kts
30-Dec-17 17:14 35.238870 -120.641187 1 189ft 0kts
30-Dec-17 17:15 35.238870 -120.641187 1 189ft 0kts
30-Dec-17 17:16 35.238870 -120.641187 1 189ft 0kts
30-Dec-17 17:17 35.238870 -120.641187 1 189ft 0kts
30-Dec-17 17:18 35.238870 -120.641187 1 189ft 0kts
30-Dec-17 17:19 35.238777 -120.641219 34 189ft 2kts
30-Dec-17 17:20 35.238820 -120.641615 154 189ft 0kts
30-Dec-17 17:21 35.238820 -120.641615 154 189ft 0kts
30-Dec-17 17:22 35.238820 -120.641615 154 189ft 0kts
30-Dec-17 17:23 35.238820 -120.641615 154 189ft 0kts
30-Dec-17 17:24 35.237319 -120.638847 118 189ft 19kts
30-Dec-17 17:25 35.233611 -120.632349 134 189ft 12kts
30-Dec-17 17:26 35.233335 -120.632242 192 189ft 0kts
30-Dec-17 17:27 35.233335 -120.632242 192 189ft 0kts
30-Dec-17 17:28 35.232864 -120.632977 302 189ft 6kts
30-Dec-17 17:29 35.242930 -120.650405 304 632ft 138kts
30-Dec-17 17:30 35.268534 -120.691970 305 2801ft 186kts
30-Dec-17 17:31 35.301654 -120.749803 302 5587ft 238kts
30-Dec-17 17:32 35.277075 -120.817928 194 8016ft 297kts
30-Dec-17 17:33 35.212434 -120.770190 120 7968ft 276kts
30-Dec-17 17:34 35.176337 -120.687629 119 8074ft 284kts
30-Dec-17 17:35 35.132384 -120.608566 127 10769ft 287kts
30-Dec-17 17:36 35.081852 -120.522436 127 12559ft 333kts
30-Dec-17 17:37 35.027374 -120.428795 127 14900ft 348kts
30-Dec-17 17:38 34.964625 -120.342523 138 14976ft 371kts
30-Dec-17 17:39 34.894428 -120.263896 139 14974ft 373kts
30-Dec-17 17:40 34.817824 -120.178414 139 14975ft 375kts
30-Dec-17 17:41 34.745824 -120.087188 132 14975ft 378kts
30-Dec-17 17:42 34.690083 -120.005369 131 14975ft 379kts
30-Dec-17 17:43 34.609783 -119.892788 136 14976ft 378kts
30-Dec-17 17:44 34.548744 -119.817270 136 14974ft 376kts
30-Dec-17 17:45 34.481147 -119.698506 93 14989ft 380kts
30-Dec-17 17:46 34.480813 -119.592187 92 14976ft 379kts
30-Dec-17 17:47 34.463116 -119.467240 102 14975ft 377kts
30-Dec-17 17:48 34.440251 -119.331644 103 14999ft 376kts
30-Dec-17 17:49 34.429517 -119.267794 103 15000ft 376kts
30-Dec-17 17:50 34.413937 -119.174963 103 15003ft 375kts
30-Dec-17 17:51 34.391726 -119.052120 105 15036ft 374kts
30-Dec-17 17:52 34.364762 -118.931243 106 15001ft 375kts
30-Dec-17 17:53 34.373857 -118.811087 59 15019ft 378kts
30-Dec-17 17:54 34.421854 -118.698154 65 15049ft 376kts
30-Dec-17 17:55 34.462439 -118.582385 72 15083ft 375kts
30-Dec-17 17:56 34.492631 -118.468195 72 15075ft 376kts
30-Dec-17 17:57 34.517526 -118.373892 72 15063ft 377kts
30-Dec-17 17:58 34.553782 -118.258426 64 14993ft 379kts
30-Dec-17 17:59 34.604545 -118.146883 64 14991ft 379kts
30-Dec-17 18:00 34.622402 -118.027611 109 14990ft 372kts
30-Dec-17 18:01 34.567301 -117.922609 122 14968ft 374kts
30-Dec-17 18:02 34.517803 -117.811277 120 14966ft 377kts
30-Dec-17 18:03 34.467208 -117.699359 120 14966ft 378kts
30-Dec-17 18:04 34.416634 -117.587481 120 14968ft 380kts
30-Dec-17 18:05 34.366072 -117.475541 119 14993ft 380kts
30-Dec-17 18:06 34.317303 -117.367491 119 14993ft 381kts
30-Dec-17 18:07 34.267906 -117.257935 120 15046ft 380kts
30-Dec-17 18:08 34.217745 -117.146654 120 15112ft 378kts
30-Dec-17 18:09 34.166856 -117.036347 120 15210ft 377kts
30-Dec-17 18:10 34.116112 -116.926151 120 15210ft 378kts
30-Dec-17 18:11 34.058980 -116.820649 123 15209ft 379kts
30-Dec-17 18:12 33.999586 -116.715738 123 15203ft 380kts
30-Dec-17 18:13 33.948878 -116.612152 113 14555ft 343kts
30-Dec-17 18:14 33.914096 -116.506147 113 12616ft 340kts
30-Dec-17 18:15 33.873493 -116.420489 130 11027ft 332kts
30-Dec-17 18:16 33.806012 -116.349056 144 9315ft 322kts
30-Dec-17 18:17 33.741830 -116.290916 144 7599ft 276kts
30-Dec-17 18:18 33.687485 -116.241653 142 5502ft 269kts
30-Dec-17 18:19 33.639430 -116.176001 131 3965ft 246kts
30-Dec-17 18:20 33.601564 -116.108142 120 3966ft 246kts
30-Dec-17 18:21 33.570146 -116.036082 95 3951ft 240kts
30-Dec-17 18:22 33.609804 -116.004829 314 3981ft 198kts
30-Dec-17 18:23 33.607745 -116.065831 242 3968ft 199kts
30-Dec-17 18:24 33.605246 -116.124667 308 3976ft 195kts
30-Dec-17 18:25 33.637607 -116.175745 299 3687ft 189kts
30-Dec-17 18:26 33.664423 -116.223684 303 2968ft 161kts
30-Dec-17 18:27 33.689461 -116.267013 303 2966ft 158kts
30-Dec-17 18:28 33.714510 -116.310371 303 2969ft 160kts
30-Dec-17 18:29 33.740172 -116.354969 303 2965ft 163kts
30-Dec-17 18:30 33.765901 -116.399538 303 2811ft 155kts
30-Dec-17 18:31 33.789553 -116.442292 303 2404ft 145kts
30-Dec-17 18:32 33.806823 -116.485478 304 1263ft 137kts
30-Dec-17 18:33 33.832456 -116.510123 323 486ft 61kts
30-Dec-17 18:34 33.836252 -116.514786 213 486ft 0kts
30-Dec-17 18:35 33.831590 -116.511466 143 486ft 26kts
30-Dec-17 18:36 33.824866 -116.505422 143 486ft 43kts
30-Dec-17 18:37 33.819672 -116.503735 270 486ft 18kts
30-Dec-17 18:38 33.821628 -116.506113 1 486ft 11kts
30-Dec-17 18:39 33.822536 -116.506201 323 486ft 0kts
30-Dec-17 18:40 33.822550 -116.506214 323 486ft 0kts
30-Dec-17 18:41 33.822550 -116.506214 323 486ft 0kts

Navigation Log

Ident Type
1. KSBP Airport
2. MQO Navaid
3. RZS Navaid
4. FIM Navaid
5. PMD Navaid
6. PURPS Fix
7. HESPE Fix
8. HITOP Fix
9. ARRAN Fix
10. MORON Fix
11. WHETO Fix
12. PSP Navaid
13. KPSP Airport